Miya Maru No.1 — JD3144 — position and weather

sailwx.info

Track history (hours):
 
Tides and Currents Weather Stations Pressure Air Temp Water Temp Dewpoint Dewpoint Depression Visibility Wind Speed Wind Dir Waves Ship Positions

Miya Maru No.1

Last reported at 2017-Dec-07 18:04 UTC. Time now 2017-Dec-13 07:33 UTC.
Position N 41°31' E 141°31'.

Length 104 m; draft 5.4 m.

Type: Tanker. MMSI: 431002261.

Date/timePositionNaut miles runAvg speedWind from/ knotsBaromVisibWave heightAir tempDewpointWater temp
2017-Dec-07 18:04N 41°31' E 141°31'316.1
2017-Dec-07 17:53N 41°33' E 141°29'614.9
2017-Dec-07 17:30N 41°38' E 141°25'714.5
2017-Dec-07 17:00N 41°45' E 141°21'714.1
2017-Dec-07 16:30N 41°51' E 141°16'  
2017-Dec-02 08:02N 41°37' E 141°27'313.7
2017-Dec-02 07:50N 41°39' E 141°24'514.4
2017-Dec-02 07:30N 41°43' E 141°21'714.1
2017-Dec-02 07:00N 41°50' E 141°17'3 0.1
2017-Nov-30 06:45N 41°52' E 141°15'413.0
2017-Nov-30 06:28N 41°49' E 141°17'612.3
2017-Nov-30 06:00N 41°44' E 141°21'611.9
2017-Nov-30 05:30N 41°39' E 141°25'611.9
2017-Nov-30 04:58N 41°33' E 141°29'611.2
2017-Nov-30 04:28N 41°28' E 141°33'912.4
2017-Nov-30 03:43N 41°19' E 141°34'  
Track history (hours):
 
Tides and Currents Weather Stations Pressure Air Temp Water Temp Dewpoint Dewpoint Depression Visibility Wind Speed Wind Dir Waves Ship Positions

Miya Maru No.1

Last reported at 2017-Dec-07 18:04 UTC. Time now 2017-Dec-13 07:33 UTC.
Position N 41°31' E 141°31'.

Length 104 m; draft 5.4 m.

Type: Tanker. MMSI: 431002261.

Date/timePositionNaut miles runAvg speedWind from/ knotsBaromVisibWave heightAir tempDewpointWater temp
2017-Dec-07 18:04N 41°31' E 141°31'316.1
2017-Dec-07 17:53N 41°33' E 141°29'614.9
2017-Dec-07 17:30N 41°38' E 141°25'714.5
2017-Dec-07 17:00N 41°45' E 141°21'714.1
2017-Dec-07 16:30N 41°51' E 141°16'  
2017-Dec-02 08:02N 41°37' E 141°27'313.7
2017-Dec-02 07:50N 41°39' E 141°24'514.4
2017-Dec-02 07:30N 41°43' E 141°21'714.1
2017-Dec-02 07:00N 41°50' E 141°17'3 0.1
2017-Nov-30 06:45N 41°52' E 141°15'413.0
2017-Nov-30 06:28N 41°49' E 141°17'612.3
2017-Nov-30 06:00N 41°44' E 141°21'611.9
2017-Nov-30 05:30N 41°39' E 141°25'611.9
2017-Nov-30 04:58N 41°33' E 141°29'611.2
2017-Nov-30 04:28N 41°28' E 141°33'912.4
2017-Nov-30 03:43N 41°19' E 141°34'  

Dump ship's entire track history